Ellsworth AFB, South Dakota
Current Conditions -  °F | °C
As of 1:58 AM on Sunday 23 Nov 2014 (Local Time) from KRCA Reporting Station
Overcast Overcast  
Wind Chill: 30°   Ceiling: 13000
Heat Index: 40°   Visibility: 10mi
Dew Point: 21°   Wind: 25mph
Humidity: 45%   Direction: 330°NNW
Pressure: 29.56"   Gusts: 29mph
Location:  44.14°N, 103.07°W
Report Text: KRCA 230858Z AUTO 33022G25KT 10SM OVC130 05/M06 A2956 RMK AO2 PK WND 33027/51 SLP014 T00471063 52019 $
Loading
Personal Weather Stations






























Interactive Weather Map New forecast layout! Learn more

10-Day Weather Forecast

Advertisements
Track Severe Weather on mobile